createdAt,value
2022-10-26T00:01:06.664Z,73.42
2022-10-26T00:03:44.061Z,73.05
2022-10-26T00:06:18.859Z,72.88
2022-10-26T00:08:53.124Z,72.99
2022-10-26T00:11:28.970Z,72.94
2022-10-26T00:14:04.449Z,72.83
2022-10-26T00:16:38.642Z,73.03
2022-10-26T00:19:11.367Z,72.97
2022-10-26T00:21:44.269Z,72.67
2022-10-26T00:26:54.873Z,72.76
2022-10-26T00:29:27.675Z,72.75
2022-10-26T00:32:01.793Z,72.83
2022-10-26T00:34:34.823Z,72.64
2022-10-26T00:37:07.835Z,73.23
2022-10-26T00:39:40.847Z,73.39
2022-10-26T00:42:18.460Z,72.98
2022-10-26T00:45:20.197Z,72.86
2022-10-26T00:47:58.140Z,73.27
2022-10-26T00:50:36.321Z,72.66
2022-10-26T00:53:10.013Z,73.08
2022-10-26T00:55:47.100Z,73.34
2022-10-26T00:58:21.795Z,73.36
2022-10-26T01:00:54.539Z,73.24
2022-10-26T01:03:29.099Z,73.24
2022-10-26T01:06:06.432Z,73.07
2022-10-26T01:08:39.612Z,73.06
2022-10-26T01:11:14.065Z,72.86
2022-10-26T01:13:49.711Z,72.99
2022-10-26T01:16:40.750Z,73.19
2022-10-26T01:19:47.779Z,73.12
2022-10-26T01:22:23.933Z,72.74
2022-10-26T01:25:05.313Z,72.74
2022-10-26T01:27:41.602Z,72.70
2022-10-26T01:30:21.449Z,72.58
2022-10-26T01:33:11.515Z,72.32
2022-10-26T01:35:52.655Z,72.38
2022-10-26T01:38:32.809Z,72.37
2022-10-26T01:41:13.043Z,72.74
2022-10-26T01:43:51.466Z,72.70
2022-10-26T01:46:28.212Z,72.55
2022-10-26T01:49:07.789Z,72.60
2022-10-26T01:51:42.708Z,72.26
2022-10-26T01:54:15.469Z,72.23
2022-10-26T01:56:51.701Z,72.52
2022-10-26T01:59:42.840Z,72.17
2022-10-26T02:03:02.550Z,72.74
2022-10-26T02:05:59.099Z,72.50
2022-10-26T02:08:47.038Z,72.74
2022-10-26T02:11:32.120Z,72.71
2022-10-26T02:16:56.253Z,72.66
2022-10-26T02:19:38.765Z,72.67
2022-10-26T02:22:17.755Z,72.44
2022-10-26T02:24:53.848Z,72.58
2022-10-26T02:27:28.689Z,71.94
2022-10-26T02:30:04.020Z,72.18
2022-10-26T02:32:40.270Z,73.05
2022-10-26T02:35:18.593Z,73.18
2022-10-26T02:37:53.539Z,72.55
2022-10-26T02:40:28.581Z,72.49
2022-10-26T02:43:05.456Z,72.67
2022-10-26T02:45:44.482Z,72.75
2022-10-26T02:48:17.584Z,72.46
2022-10-26T02:50:58.742Z,72.85
2022-10-26T02:53:36.159Z,73.04
2022-10-26T02:56:16.577Z,72.89
2022-10-26T02:58:56.482Z,72.83
2022-10-26T03:01:30.321Z,72.52
2022-10-26T03:04:03.385Z,72.57
2022-10-26T03:06:37.740Z,72.13
2022-10-26T03:09:10.530Z,72.84
2022-10-26T03:11:43.109Z,72.86
2022-10-26T03:14:16.178Z,72.88
2022-10-26T03:16:49.024Z,72.72
2022-10-26T03:19:24.588Z,72.48
2022-10-26T03:21:59.050Z,72.99
2022-10-26T03:24:31.854Z,72.73
2022-10-26T03:27:04.836Z,72.54
2022-10-26T03:29:37.545Z,72.78
2022-10-26T03:32:13.297Z,72.46
2022-10-26T03:34:53.787Z,73.35
2022-10-26T03:37:32.271Z,72.80
2022-10-26T03:40:05.982Z,72.81
2022-10-26T03:42:39.373Z,72.93
2022-10-26T03:45:13.202Z,73.15
2022-10-26T03:47:48.168Z,72.39
2022-10-26T03:50:27.341Z,72.59
2022-10-26T03:53:01.733Z,72.69
2022-10-26T03:55:34.918Z,72.61
2022-10-26T03:58:09.254Z,72.46
2022-10-26T04:00:44.862Z,72.93
2022-10-26T04:03:17.750Z,72.64
2022-10-26T04:05:50.625Z,72.55
2022-10-26T04:08:24.815Z,72.99
2022-10-26T04:10:59.930Z,72.76
2022-10-26T04:13:35.959Z,72.62
2022-10-26T04:16:09.698Z,72.70
2022-10-26T04:18:42.505Z,72.72
2022-10-26T04:21:15.259Z,72.60
2022-10-26T04:23:49.306Z,72.52
2022-10-26T04:26:22.080Z,72.48
2022-10-26T04:28:55.066Z,72.57
2022-10-26T04:31:27.762Z,72.68
2022-10-26T04:34:00.554Z,72.40
2022-10-26T04:36:34.560Z,72.37
2022-10-26T04:39:09.163Z,72.58
2022-10-26T04:41:43.660Z,72.79
2022-10-26T04:44:19.559Z,72.84
2022-10-26T04:46:53.045Z,72.79
2022-10-26T04:49:25.888Z,72.44
2022-10-26T04:51:58.801Z,72.38
2022-10-26T04:54:32.939Z,73.10
2022-10-26T04:57:05.642Z,72.50
2022-10-26T04:59:38.384Z,72.63
2022-10-26T05:02:11.436Z,72.96
2022-10-26T05:04:44.079Z,72.76
2022-10-26T05:07:17.077Z,72.49
2022-10-26T05:09:51.095Z,72.33
2022-10-26T05:12:24.549Z,72.48
2022-10-26T05:14:59.122Z,72.79
2022-10-26T05:17:32.280Z,72.60
2022-10-26T05:20:06.196Z,72.60
2022-10-26T05:22:38.978Z,72.60
2022-10-26T05:25:13.212Z,72.77
2022-10-26T05:27:45.998Z,72.41
2022-10-26T05:30:20.503Z,72.38
2022-10-26T05:32:58.981Z,72.43
2022-10-26T05:35:32.892Z,72.37
2022-10-26T05:38:09.871Z,72.74
2022-10-26T05:40:49.819Z,72.60
2022-10-26T05:43:24.471Z,72.91
2022-10-26T05:45:57.416Z,72.30
2022-10-26T05:48:31.305Z,72.61
2022-10-26T05:51:04.631Z,72.56
2022-10-26T05:53:45.182Z,72.19
2022-10-26T05:56:21.778Z,72.44
2022-10-26T05:58:55.746Z,71.82
2022-10-26T06:01:47.507Z,72.27
2022-10-26T06:04:31.477Z,71.98
2022-10-26T06:07:21.038Z,71.87
2022-10-26T06:09:55.712Z,71.97
2022-10-26T06:12:31.282Z,72.48
2022-10-26T06:15:10.361Z,72.69
2022-10-26T06:17:58.716Z,72.31
2022-10-26T06:20:50.677Z,72.23
2022-10-26T06:23:45.817Z,72.54
2022-10-26T06:26:34.367Z,72.58
2022-10-26T06:29:20.396Z,72.45
2022-10-26T06:31:54.836Z,72.47
2022-10-26T06:34:36.173Z,72.43
2022-10-26T06:37:09.638Z,72.55
2022-10-26T06:39:48.903Z,72.44
2022-10-26T06:42:24.577Z,72.85
2022-10-26T06:44:59.413Z,72.78
2022-10-26T06:47:41.528Z,73.35
2022-10-26T06:50:26.940Z,72.96
2022-10-26T06:53:11.456Z,72.60
2022-10-26T06:55:47.405Z,72.76
2022-10-26T06:58:22.806Z,72.93
2022-10-26T07:00:57.791Z,72.74
2022-10-26T07:03:30.592Z,72.92
2022-10-26T07:06:03.334Z,72.96
2022-10-26T07:08:36.220Z,72.81
2022-10-26T07:11:39.242Z,73.03
2022-10-26T07:14:12.630Z,72.84
2022-10-26T07:16:46.651Z,72.92
2022-10-26T07:19:19.445Z,73.02
2022-10-26T07:21:52.292Z,72.59
2022-10-26T07:24:25.050Z,72.80
2022-10-26T07:26:58.872Z,73.13
2022-10-26T07:29:35.335Z,72.86
2022-10-26T07:32:09.878Z,72.76
2022-10-26T07:34:42.656Z,72.78
2022-10-26T07:37:15.331Z,72.96
2022-10-26T07:39:48.158Z,72.80
2022-10-26T07:42:20.962Z,72.55
2022-10-26T07:44:53.725Z,72.48
2022-10-26T07:47:27.721Z,73.08
2022-10-26T07:50:00.770Z,72.88
2022-10-26T07:52:35.826Z,72.62
2022-10-26T07:55:10.347Z,72.30
2022-10-26T07:57:43.383Z,72.74
2022-10-26T08:00:20.068Z,72.27
2022-10-26T08:02:54.987Z,71.89
2022-10-26T08:05:27.822Z,71.87
2022-10-26T08:08:00.611Z,72.24
2022-10-26T08:10:33.563Z,72.04
2022-10-26T08:13:06.352Z,72.16
2022-10-26T08:15:41.576Z,72.92
2022-10-26T08:18:15.878Z,71.71
2022-10-26T08:20:48.850Z,72.32
2022-10-26T08:23:21.835Z,73.61
2022-10-26T08:26:11.415Z,73.26
2022-10-26T08:28:44.327Z,73.12
2022-10-26T08:31:17.371Z,73.08
2022-10-26T08:33:51.502Z,72.20
2022-10-26T08:36:27.214Z,72.33
2022-10-26T08:41:41.867Z,72.52
2022-10-26T08:44:26.118Z,72.83
2022-10-26T08:47:06.787Z,72.84
2022-10-26T08:49:47.631Z,72.70
2022-10-26T08:52:25.442Z,72.60
2022-10-26T08:55:01.173Z,72.80
2022-10-26T08:57:40.991Z,72.47
2022-10-26T09:00:19.234Z,72.97
2022-10-26T09:02:52.497Z,73.23
2022-10-26T09:05:36.804Z,72.66
2022-10-26T09:08:19.080Z,72.63
2022-10-26T09:10:59.121Z,72.92
2022-10-26T09:13:43.187Z,72.32
2022-10-26T09:16:24.533Z,72.43
2022-10-26T09:19:09.975Z,72.08
2022-10-26T09:21:51.309Z,73.24
2022-10-26T09:24:31.930Z,73.09
2022-10-26T09:27:13.253Z,72.50
2022-10-26T09:29:46.168Z,73.47
2022-10-26T09:32:21.752Z,72.72
2022-10-26T09:34:58.097Z,72.38
2022-10-26T09:37:38.098Z,72.59
2022-10-26T09:40:19.170Z,72.36
2022-10-26T09:42:59.104Z,72.69
2022-10-26T09:45:34.567Z,72.90
2022-10-26T09:48:13.447Z,72.79
2022-10-26T09:50:49.714Z,72.56
2022-10-26T09:53:23.797Z,72.41
2022-10-26T09:56:07.198Z,72.47
2022-10-26T09:58:45.226Z,72.38
2022-10-26T10:01:24.103Z,72.47
2022-10-26T10:04:11.941Z,73.31
2022-10-26T10:06:46.731Z,72.48
2022-10-26T10:09:22.257Z,72.99
2022-10-26T10:11:56.677Z,73.19
2022-10-26T10:14:34.651Z,72.64
2022-10-26T10:17:20.885Z,73.14
2022-10-26T10:19:54.059Z,72.46
2022-10-26T10:22:27.542Z,72.42
2022-10-26T10:25:03.172Z,73.35
2022-10-26T10:27:35.925Z,71.90
2022-10-26T10:30:23.107Z,73.06
2022-10-26T10:33:07.094Z,73.22
2022-10-26T10:35:55.307Z,73.25
2022-10-26T10:38:28.458Z,73.26
2022-10-26T10:41:03.863Z,73.01
2022-10-26T10:43:37.722Z,72.55
2022-10-26T10:46:10.761Z,72.04
2022-10-26T10:48:47.699Z,72.60
2022-10-26T10:51:23.391Z,73.27
2022-10-26T10:53:57.786Z,71.33
2022-10-26T10:56:41.257Z,71.98
2022-10-26T10:59:30.227Z,72.19
2022-10-26T11:02:34.662Z,72.72
2022-10-26T11:05:27.629Z,73.69
2022-10-26T11:08:07.327Z,72.91
2022-10-26T11:11:01.637Z,71.97
2022-10-26T11:13:47.308Z,72.46
2022-10-26T11:16:25.088Z,71.67
2022-10-26T11:19:05.548Z,70.72
2022-10-26T11:21:40.824Z,70.41
2022-10-26T11:24:21.483Z,70.52
2022-10-26T11:27:00.011Z,70.06
2022-10-26T11:29:43.488Z,70.46
2022-10-26T11:32:25.582Z,70.33
2022-10-26T11:35:06.462Z,70.47
2022-10-26T11:37:46.998Z,70.75
2022-10-26T11:40:32.354Z,70.58
2022-10-26T11:43:21.115Z,70.72
2022-10-26T11:46:12.771Z,70.66
2022-10-26T11:48:55.602Z,69.97
2022-10-26T11:51:40.629Z,70.41
2022-10-26T11:56:56.987Z,69.21
2022-10-26T11:59:51.568Z,70.13
2022-10-26T12:02:30.714Z,70.52
2022-10-26T12:05:09.361Z,69.21
2022-10-26T12:07:48.970Z,69.82
2022-10-26T12:10:35.099Z,69.47
2022-10-26T12:13:21.011Z,69.78
2022-10-26T12:16:04.304Z,69.91
2022-10-26T12:18:55.964Z,69.12
2022-10-26T12:21:31.958Z,68.74
2022-10-26T12:24:27.566Z,68.61
2022-10-26T12:27:01.653Z,69.07
2022-10-26T12:29:46.838Z,69.93
2022-10-26T12:32:54.879Z,69.44
2022-10-26T12:35:35.473Z,68.88
2022-10-26T12:38:47.085Z,68.89
2022-10-26T12:41:22.525Z,68.60
2022-10-26T12:48:38.969Z,68.95
2022-10-26T12:51:44.323Z,69.36
2022-10-26T12:54:32.429Z,69.48
2022-10-26T12:57:18.053Z,68.98
2022-10-26T13:00:02.057Z,68.95
2022-10-26T13:02:55.756Z,69.11
2022-10-26T13:06:00.287Z,68.88
2022-10-26T13:08:42.929Z,69.10
2022-10-26T13:11:20.063Z,69.30
2022-10-26T13:13:58.791Z,69.34
2022-10-26T13:16:31.982Z,69.03
2022-10-26T13:19:06.075Z,68.72
2022-10-26T13:21:48.789Z,68.92
2022-10-26T13:24:25.689Z,68.94
2022-10-26T13:27:27.940Z,68.77
2022-10-26T13:30:42.060Z,69.02
2022-10-26T13:33:37.807Z,68.65
2022-10-26T13:36:19.406Z,68.37
2022-10-26T13:38:52.468Z,68.94
2022-10-26T13:41:29.359Z,69.34
2022-10-26T13:44:06.979Z,68.89
2022-10-26T13:46:44.535Z,68.65
2022-10-26T13:49:22.812Z,69.45
2022-10-26T13:51:55.934Z,68.86
2022-10-26T13:54:35.845Z,68.81
2022-10-26T13:57:18.946Z,68.75
2022-10-26T14:00:04.200Z,68.93
2022-10-26T14:02:49.950Z,68.88
2022-10-26T14:05:24.164Z,68.97
2022-10-26T14:07:59.715Z,69.35
2022-10-26T14:10:37.366Z,69.16
2022-10-26T14:13:16.244Z,69.05
2022-10-26T14:15:49.561Z,68.95
2022-10-26T14:18:25.081Z,68.68
2022-10-26T14:21:02.447Z,68.41
2022-10-26T14:23:36.846Z,68.75
2022-10-26T14:26:20.529Z,68.47
2022-10-26T14:28:56.848Z,68.60
2022-10-26T14:31:31.807Z,68.16
2022-10-26T14:34:06.021Z,68.32
2022-10-26T14:36:42.539Z,68.71
2022-10-26T14:39:25.801Z,68.66
2022-10-26T14:41:59.055Z,68.59
2022-10-26T14:44:33.376Z,68.65
2022-10-26T14:47:06.238Z,68.30
2022-10-26T14:49:40.239Z,69.12
2022-10-26T14:52:28.941Z,68.54
2022-10-26T14:55:13.392Z,68.52
2022-10-26T14:57:50.607Z,68.67
2022-10-26T15:00:28.041Z,68.49
2022-10-26T15:03:15.346Z,68.10
2022-10-26T15:05:48.251Z,67.77
2022-10-26T15:08:52.638Z,67.54
2022-10-26T15:11:30.881Z,67.17
2022-10-26T15:14:04.390Z,67.16
2022-10-26T15:16:51.518Z,67.35
2022-10-26T15:19:25.493Z,67.02
2022-10-26T15:21:59.493Z,67.07
2022-10-26T15:24:41.619Z,67.50
2022-10-26T15:27:17.112Z,67.14
2022-10-26T15:29:51.924Z,67.35
2022-10-26T15:32:39.059Z,67.01
2022-10-26T15:35:39.724Z,67.55
2022-10-26T15:38:15.003Z,67.33
2022-10-26T15:40:50.790Z,67.20
2022-10-26T15:43:23.591Z,67.13
2022-10-26T15:45:57.490Z,67.07
2022-10-26T15:48:35.795Z,67.12
2022-10-26T15:51:13.670Z,66.98
2022-10-26T15:53:49.097Z,67.46
2022-10-26T15:56:27.548Z,67.36
2022-10-26T15:59:00.578Z,67.75
2022-10-26T16:01:33.811Z,66.87
2022-10-26T16:04:09.581Z,67.54
2022-10-26T16:06:43.622Z,67.87
2022-10-26T16:09:20.564Z,67.59
2022-10-26T16:11:53.796Z,67.23
2022-10-26T16:14:33.544Z,67.71
2022-10-26T16:17:10.273Z,67.09
2022-10-26T16:19:44.310Z,66.65
2022-10-26T16:22:17.612Z,66.81
2022-10-26T16:24:51.910Z,66.81
2022-10-26T16:27:24.979Z,67.17
2022-10-26T16:30:07.313Z,66.96
2022-10-26T16:32:40.988Z,67.22
2022-10-26T16:35:18.310Z,67.08
2022-10-26T16:37:51.295Z,67.34
2022-10-26T16:40:24.084Z,67.85
2022-10-26T16:42:58.869Z,67.89
2022-10-26T16:45:34.744Z,68.16
2022-10-26T16:48:15.243Z,68.78
2022-10-26T16:50:49.750Z,68.06
2022-10-26T16:53:24.979Z,68.51
2022-10-26T16:56:14.298Z,68.20
2022-10-26T16:58:52.872Z,68.05
2022-10-26T17:01:28.713Z,69.34
2022-10-26T17:04:05.040Z,70.09
2022-10-26T17:06:43.170Z,68.07
2022-10-26T17:09:16.063Z,68.40
2022-10-26T17:11:50.095Z,68.24
2022-10-26T17:14:23.541Z,68.19
2022-10-26T17:16:56.775Z,69.75
2022-10-26T17:19:33.546Z,68.66
2022-10-26T17:22:13.203Z,68.15
2022-10-26T17:24:46.481Z,68.00
2022-10-26T17:27:20.534Z,67.69
2022-10-26T17:29:53.548Z,67.96
2022-10-26T17:32:26.330Z,68.30
2022-10-26T17:35:04.083Z,68.24
2022-10-26T17:55:02.891Z,68.77
2022-10-26T17:57:46.385Z,69.86
2022-10-26T18:00:22.390Z,68.71
2022-10-26T18:02:55.617Z,70.55
2022-10-26T18:05:54.374Z,69.39
2022-10-26T18:08:36.727Z,68.77
2022-10-26T18:11:49.567Z,68.59
2022-10-26T18:14:26.546Z,68.59
2022-10-26T18:16:59.846Z,68.70
2022-10-26T18:19:36.737Z,68.43
2022-10-26T18:22:10.187Z,70.20
2022-10-26T18:24:44.933Z,68.87
2022-10-26T18:27:24.356Z,68.89
2022-10-26T18:29:59.845Z,69.17
2022-10-26T18:32:49.433Z,69.25
2022-10-26T18:35:25.194Z,69.27
2022-10-26T18:37:58.538Z,69.48
2022-10-26T18:40:35.263Z,69.60
2022-10-26T18:43:11.255Z,69.39
2022-10-26T18:45:52.333Z,69.60
2022-10-26T18:48:27.015Z,69.54
2022-10-26T18:51:06.108Z,68.91
2022-10-26T18:53:43.987Z,70.74
2022-10-26T18:56:19.314Z,70.73
2022-10-26T18:58:54.541Z,69.62
2022-10-26T19:01:34.125Z,70.52
2022-10-26T19:04:09.421Z,73.31
2022-10-26T19:06:47.472Z,69.63
2022-10-26T19:09:25.064Z,71.18
2022-10-26T19:12:00.157Z,69.77
2022-10-26T19:14:38.614Z,69.74
2022-10-26T19:17:15.342Z,70.04
2022-10-26T19:19:49.314Z,69.87
2022-10-26T19:22:26.507Z,70.44
2022-10-26T19:25:05.068Z,70.37
2022-10-26T19:27:39.619Z,70.44
2022-10-26T19:30:16.953Z,70.47
2022-10-26T19:32:57.379Z,70.22
2022-10-26T19:35:31.507Z,71.80
2022-10-26T19:38:04.722Z,71.83
2022-10-26T19:40:37.860Z,73.07
2022-10-26T19:43:17.869Z,71.36
2022-10-26T19:45:50.834Z,74.07
2022-10-26T19:48:25.363Z,72.87
2022-10-26T19:51:00.952Z,73.29
2022-10-26T19:53:34.073Z,71.50
2022-10-26T19:56:11.796Z,72.78
2022-10-26T19:58:46.244Z,72.82
2022-10-26T20:01:22.518Z,73.38
2022-10-26T20:03:58.471Z,73.49
2022-10-26T20:06:57.183Z,73.16
2022-10-26T20:09:33.207Z,72.97
2022-10-26T20:12:18.826Z,74.85
2022-10-26T20:14:51.942Z,73.21
2022-10-26T20:17:28.361Z,73.64
2022-10-26T20:20:05.819Z,73.52
2022-10-26T20:22:39.238Z,73.64
2022-10-26T20:25:12.583Z,72.16
2022-10-26T20:27:48.994Z,70.97
2022-10-26T20:30:22.350Z,71.80
2022-10-26T20:32:57.672Z,74.05
2022-10-26T20:35:34.169Z,74.25
2022-10-26T20:38:12.147Z,74.36
2022-10-26T20:40:45.919Z,73.42
2022-10-26T20:43:22.012Z,73.85
2022-10-26T20:45:59.970Z,74.91
2022-10-26T20:48:33.666Z,74.42
2022-10-26T20:51:23.901Z,75.38
2022-10-26T20:54:15.526Z,73.30
2022-10-26T20:56:51.185Z,75.98
2022-10-26T21:02:12.609Z,73.87
2022-10-26T21:04:45.967Z,72.36
2022-10-26T21:07:20.356Z,74.38
2022-10-26T21:09:53.588Z,75.51
2022-10-26T21:12:26.861Z,74.06
2022-10-26T21:15:10.292Z,73.27
2022-10-26T21:17:50.782Z,72.50
2022-10-26T21:20:29.335Z,74.25
2022-10-26T21:23:09.893Z,73.95
2022-10-26T21:25:43.152Z,73.49
2022-10-26T21:28:22.406Z,73.75
2022-10-26T21:30:55.743Z,74.80
2022-10-26T21:33:38.073Z,73.86
2022-10-26T21:36:14.951Z,72.32
2022-10-26T21:38:54.895Z,72.27
2022-10-26T21:41:30.155Z,73.65
2022-10-26T21:44:09.673Z,72.35
2022-10-26T21:46:47.936Z,72.29
2022-10-26T21:49:21.288Z,73.17
2022-10-26T21:51:56.815Z,71.79
2022-10-26T21:54:33.645Z,71.81
2022-10-26T21:57:19.943Z,71.89
2022-10-26T21:59:55.819Z,72.15
2022-10-26T22:02:29.079Z,71.84
2022-10-26T22:05:06.145Z,72.04
2022-10-26T22:07:39.033Z,72.23
2022-10-26T22:10:13.438Z,71.93
2022-10-26T22:12:52.742Z,71.95
2022-10-26T22:15:25.833Z,72.01
2022-10-26T22:18:00.251Z,71.53
2022-10-26T22:20:35.170Z,71.45
2022-10-26T22:23:09.026Z,72.00
2022-10-26T22:25:43.542Z,71.66
2022-10-26T22:28:16.532Z,71.57
2022-10-26T22:30:49.377Z,71.88
2022-10-26T22:33:28.054Z,72.05
2022-10-26T22:36:05.642Z,72.13
2022-10-26T22:38:39.221Z,71.79
2022-10-26T22:41:17.008Z,71.39
2022-10-26T22:43:50.946Z,71.63
2022-10-26T22:46:25.995Z,71.64
2022-10-26T22:49:26.837Z,71.70
2022-10-26T22:52:02.405Z,71.97
2022-10-26T22:54:35.707Z,72.57
2022-10-26T23:00:46.298Z,72.49
2022-10-26T23:03:21.328Z,72.69
2022-10-26T23:06:03.226Z,73.57
2022-10-26T23:08:36.212Z,74.27
2022-10-26T23:11:10.791Z,74.98
2022-10-26T23:13:45.515Z,74.25
2022-10-26T23:16:19.236Z,73.62
2022-10-26T23:18:53.335Z,74.52
2022-10-26T23:21:30.269Z,74.52
2022-10-26T23:24:03.397Z,73.72
2022-10-26T23:26:36.943Z,73.00
2022-10-26T23:29:11.437Z,74.01
2022-10-26T23:31:46.607Z,73.97
2022-10-26T23:34:23.187Z,73.44
2022-10-26T23:36:56.311Z,74.12
2022-10-26T23:39:29.352Z,73.87
2022-10-26T23:42:02.389Z,73.93
2022-10-26T23:44:36.786Z,74.94
2022-10-26T23:47:09.791Z,73.49
2022-10-26T23:49:42.654Z,74.35
2022-10-26T23:52:15.730Z,74.46
2022-10-26T23:57:23.051Z,74.56
2022-10-26T23:59:57.207Z,73.22
